createdAt,value
2018-10-17T00:00:50.296Z,60.50
2018-10-17T00:03:18.642Z,60.40
2018-10-17T00:05:46.968Z,60.80
2018-10-17T00:08:15.284Z,61.90
2018-10-17T00:10:43.651Z,62.90
2018-10-17T00:13:12.040Z,62.90
2018-10-17T00:15:40.374Z,62.90
2018-10-17T00:18:08.716Z,62.90
2018-10-17T00:20:37.330Z,63.00
2018-10-17T00:23:06.169Z,63.00
2018-10-17T00:25:34.520Z,63.00
2018-10-17T00:28:03.085Z,63.00
2018-10-17T00:30:31.444Z,63.00
2018-10-17T00:32:59.816Z,62.90
2018-10-17T00:35:28.277Z,62.90
2018-10-17T00:37:56.609Z,62.90
2018-10-17T00:40:25.417Z,62.90
2018-10-17T00:42:54.672Z,62.90
2018-10-17T00:45:22.985Z,62.80
2018-10-17T00:47:51.364Z,63.30
2018-10-17T00:50:19.692Z,63.10
2018-10-17T00:52:47.989Z,62.80
2018-10-17T00:55:16.373Z,61.70
2018-10-17T00:57:44.674Z,61.50
2018-10-17T01:00:13.070Z,62.70
2018-10-17T01:02:41.386Z,62.70
2018-10-17T01:05:09.828Z,63.40
2018-10-17T01:07:38.066Z,63.60
2018-10-17T01:10:06.421Z,63.60
2018-10-17T01:12:34.774Z,63.60
2018-10-17T01:15:03.291Z,63.90
2018-10-17T01:17:31.660Z,64.00
2018-10-17T01:20:00.050Z,64.00
2018-10-17T01:22:28.405Z,64.00
2018-10-17T01:24:56.816Z,64.00
2018-10-17T01:27:25.112Z,63.50
2018-10-17T01:29:53.456Z,63.40
2018-10-17T01:32:21.808Z,63.30
2018-10-17T01:34:50.216Z,63.30
2018-10-17T01:37:18.558Z,63.30
2018-10-17T01:39:46.904Z,63.40
2018-10-17T01:42:15.252Z,62.70
2018-10-17T01:44:43.602Z,62.60
2018-10-17T01:47:11.953Z,63.20
2018-10-17T01:49:40.262Z,63.80
2018-10-17T01:52:08.624Z,63.80
2018-10-17T01:54:36.980Z,63.70
2018-10-17T01:57:06.015Z,63.50
2018-10-17T01:59:34.358Z,63.30
2018-10-17T02:02:02.732Z,63.30
2018-10-17T02:04:31.084Z,63.30
2018-10-17T02:06:59.456Z,63.50
2018-10-17T02:09:27.800Z,63.50
2018-10-17T02:11:56.136Z,63.80
2018-10-17T02:14:24.476Z,63.90
2018-10-17T02:16:52.808Z,63.70
2018-10-17T02:19:21.118Z,63.80
2018-10-17T02:21:49.533Z,63.90
2018-10-17T02:24:17.925Z,63.90
2018-10-17T02:26:46.294Z,64.00
2018-10-17T02:29:14.703Z,64.00
2018-10-17T02:31:42.982Z,63.70
2018-10-17T02:34:11.340Z,63.60
2018-10-17T02:36:39.647Z,64.20
2018-10-17T02:39:09.343Z,64.30
2018-10-17T02:41:37.689Z,64.10
2018-10-17T02:44:06.595Z,63.90
2018-10-17T02:46:34.939Z,63.60
2018-10-17T02:49:03.332Z,63.40
2018-10-17T02:51:31.665Z,62.80
2018-10-17T02:54:00.006Z,62.10
2018-10-17T02:56:28.324Z,61.80
2018-10-17T02:58:56.718Z,61.30
2018-10-17T03:01:25.032Z,61.70
2018-10-17T03:03:53.367Z,62.00
2018-10-17T03:06:21.736Z,62.50
2018-10-17T03:08:50.070Z,62.30
2018-10-17T03:11:18.526Z,61.60
2018-10-17T03:13:46.809Z,61.50
2018-10-17T03:16:15.153Z,61.50
2018-10-17T03:18:46.519Z,61.50
2018-10-17T03:21:14.883Z,61.50
2018-10-17T03:23:43.219Z,61.50
2018-10-17T03:26:11.569Z,61.60
2018-10-17T03:28:39.900Z,61.50
2018-10-17T03:31:08.409Z,61.50
2018-10-17T03:33:36.596Z,61.50
2018-10-17T03:36:05.102Z,61.50
2018-10-17T03:38:33.332Z,61.60
2018-10-17T03:41:01.763Z,62.10
2018-10-17T03:43:30.100Z,63.50
2018-10-17T03:45:58.423Z,64.00
2018-10-17T03:48:26.768Z,64.10
2018-10-17T03:50:55.128Z,64.00
2018-10-17T03:53:23.478Z,63.90
2018-10-17T03:55:51.844Z,64.10
2018-10-17T03:58:20.193Z,64.80
2018-10-17T04:00:48.540Z,65.00
2018-10-17T04:03:16.909Z,65.00
2018-10-17T04:05:45.280Z,64.80
2018-10-17T04:08:13.634Z,65.10
2018-10-17T04:10:41.976Z,64.40
2018-10-17T04:13:10.393Z,64.40
2018-10-17T04:15:38.666Z,64.30
2018-10-17T04:18:07.021Z,64.10
2018-10-17T04:20:35.403Z,64.10
2018-10-17T04:23:03.764Z,64.10
2018-10-17T04:25:32.244Z,63.90
2018-10-17T04:28:00.599Z,63.90
2018-10-17T04:30:28.949Z,63.20
2018-10-17T04:32:57.332Z,61.60
2018-10-17T04:35:25.694Z,61.40
2018-10-17T04:37:54.056Z,61.40
2018-10-17T04:40:22.447Z,61.40
2018-10-17T04:42:50.801Z,62.90
2018-10-17T04:45:19.161Z,63.40
2018-10-17T04:47:47.605Z,63.50
2018-10-17T04:50:15.836Z,63.70
2018-10-17T04:52:44.281Z,63.60
2018-10-17T04:55:12.735Z,63.50
2018-10-17T04:57:40.993Z,63.50
2018-10-17T05:00:11.618Z,63.50
2018-10-17T05:02:40.938Z,63.40
2018-10-17T05:05:09.368Z,63.10
2018-10-17T05:07:37.677Z,63.00
2018-10-17T05:10:06.054Z,62.90
2018-10-17T05:12:34.407Z,63.00
2018-10-17T05:15:02.759Z,63.00
2018-10-17T05:17:31.147Z,63.00
2018-10-17T05:19:59.496Z,63.10
2018-10-17T05:22:27.853Z,63.10
2018-10-17T05:24:56.260Z,63.20
2018-10-17T05:27:24.600Z,63.40
2018-10-17T05:29:53.109Z,63.50
2018-10-17T05:32:21.258Z,63.50
2018-10-17T05:34:49.635Z,63.30
2018-10-17T05:37:18.128Z,63.10
2018-10-17T05:39:46.313Z,62.80
2018-10-17T05:42:14.631Z,62.70
2018-10-17T05:44:42.969Z,62.40
2018-10-17T05:47:11.363Z,62.20
2018-10-17T05:49:39.826Z,61.70
2018-10-17T05:52:08.233Z,61.30
2018-10-17T05:54:36.589Z,61.30
2018-10-17T05:57:05.617Z,61.30
2018-10-17T05:59:33.937Z,60.80
2018-10-17T06:02:05.245Z,60.70
2018-10-17T06:04:33.550Z,60.80
2018-10-17T06:07:01.990Z,60.90
2018-10-17T06:09:30.274Z,61.10
2018-10-17T06:11:58.613Z,61.30
2018-10-17T06:14:27.087Z,61.70
2018-10-17T06:16:55.526Z,62.10
2018-10-17T06:19:23.777Z,62.40
2018-10-17T06:21:52.137Z,62.90
2018-10-17T06:24:20.478Z,63.10
2018-10-17T06:26:48.847Z,63.10
2018-10-17T06:29:17.187Z,63.30
2018-10-17T06:31:45.528Z,63.30
2018-10-17T06:34:13.979Z,63.40
2018-10-17T06:36:42.281Z,63.60
2018-10-17T06:39:11.969Z,63.80
2018-10-17T06:41:40.483Z,63.90
2018-10-17T06:44:09.180Z,64.00
2018-10-17T06:46:37.529Z,64.20
2018-10-17T06:49:05.921Z,64.10
2018-10-17T06:51:34.241Z,64.30
2018-10-17T06:54:02.655Z,64.30
2018-10-17T06:56:30.954Z,64.40
2018-10-17T06:58:59.358Z,64.60
2018-10-17T07:04:02.963Z,64.50
2018-10-17T07:06:31.341Z,64.60
2018-10-17T07:08:59.649Z,66.20
2018-10-17T07:11:27.984Z,65.40
2018-10-17T07:13:56.319Z,63.90
2018-10-17T07:16:24.687Z,62.80
2018-10-17T07:18:53.024Z,62.60
2018-10-17T07:21:21.374Z,61.50
2018-10-17T07:23:49.742Z,61.00
2018-10-17T07:26:18.104Z,60.70
2018-10-17T07:28:46.559Z,61.00
2018-10-17T07:31:14.863Z,60.10
2018-10-17T07:33:43.174Z,60.40
2018-10-17T07:36:11.587Z,60.20
2018-10-17T07:38:39.831Z,60.30
2018-10-17T07:41:08.553Z,60.30
2018-10-17T07:43:36.879Z,58.70
2018-10-17T07:46:05.315Z,58.40
2018-10-17T07:48:33.899Z,59.10
2018-10-17T07:51:02.783Z,59.40
2018-10-17T07:53:31.178Z,59.00
2018-10-17T07:55:59.485Z,58.90
2018-10-17T07:58:27.861Z,58.70
2018-10-17T08:00:56.218Z,58.90
2018-10-17T08:03:24.605Z,61.20
2018-10-17T08:05:53.095Z,60.30
2018-10-17T08:08:21.425Z,60.00
2018-10-17T08:10:49.777Z,60.10
2018-10-17T08:13:18.116Z,60.90
2018-10-17T08:15:46.459Z,61.80
2018-10-17T08:18:14.854Z,63.00
2018-10-17T08:20:43.128Z,63.10
2018-10-17T08:23:11.471Z,63.10
2018-10-17T08:25:39.863Z,63.70
2018-10-17T08:28:08.297Z,63.30
2018-10-17T08:30:36.620Z,63.40
2018-10-17T08:33:05.428Z,63.40
2018-10-17T08:35:33.862Z,62.80
2018-10-17T08:38:02.867Z,62.80
2018-10-17T08:40:31.163Z,62.40
2018-10-17T08:42:59.499Z,62.20
2018-10-17T08:45:27.841Z,62.60
2018-10-17T08:47:56.146Z,62.20
2018-10-17T08:50:24.524Z,61.50
2018-10-17T08:52:52.870Z,61.90
2018-10-17T08:55:21.191Z,61.30
2018-10-17T08:57:49.532Z,60.90
2018-10-17T09:00:17.873Z,61.30
2018-10-17T09:02:46.234Z,60.40
2018-10-17T09:05:14.590Z,60.10
2018-10-17T09:07:42.998Z,60.00
2018-10-17T09:10:11.321Z,58.70
2018-10-17T09:12:39.644Z,58.70
2018-10-17T09:15:08.072Z,58.20
2018-10-17T09:17:36.416Z,57.80
2018-10-17T09:20:05.663Z,57.30
2018-10-17T09:22:33.959Z,56.30
2018-10-17T09:25:02.344Z,56.00
2018-10-17T09:27:30.573Z,54.70
2018-10-17T09:29:59.023Z,53.70
2018-10-17T09:32:27.315Z,53.00
2018-10-17T09:34:55.711Z,53.20
2018-10-17T09:37:24.025Z,53.10
2018-10-17T09:39:52.452Z,52.20
2018-10-17T09:42:20.931Z,51.30
2018-10-17T09:44:49.138Z,51.20
2018-10-17T09:47:17.501Z,50.60
2018-10-17T09:49:45.853Z,50.80
2018-10-17T09:52:14.301Z,50.50
2018-10-17T09:54:42.605Z,50.50
2018-10-17T09:57:10.924Z,50.30
2018-10-17T09:59:39.279Z,49.70
2018-10-17T10:02:07.640Z,49.30
2018-10-17T10:04:36.002Z,48.80
2018-10-17T10:07:04.360Z,48.50
2018-10-17T10:09:32.849Z,48.60
2018-10-17T10:12:01.216Z,48.40
2018-10-17T10:14:29.534Z,47.70
2018-10-17T10:16:57.973Z,47.50
2018-10-17T10:19:26.232Z,46.60
2018-10-17T10:21:54.623Z,45.80
2018-10-17T10:24:23.090Z,45.50
2018-10-17T10:26:51.453Z,44.70
2018-10-17T10:29:19.819Z,44.30
2018-10-17T10:31:48.160Z,43.90
2018-10-17T10:34:16.540Z,43.80
2018-10-17T10:36:44.953Z,43.20
2018-10-17T10:39:13.555Z,43.10
2018-10-17T10:41:42.156Z,42.70
2018-10-17T10:44:10.526Z,42.20
2018-10-17T10:46:38.833Z,40.80
2018-10-17T10:49:07.367Z,40.90
2018-10-17T10:51:35.709Z,41.10
2018-10-17T10:54:04.118Z,41.20
2018-10-17T10:56:32.393Z,40.30
2018-10-17T10:59:00.753Z,39.40
2018-10-17T11:01:29.103Z,39.20
2018-10-17T11:03:57.439Z,38.90
2018-10-17T11:06:25.818Z,39.20
2018-10-17T11:08:54.188Z,38.60
2018-10-17T11:11:22.518Z,38.70
2018-10-17T11:13:50.934Z,38.30
2018-10-17T11:16:19.225Z,37.90
2018-10-17T11:18:47.588Z,37.60
2018-10-17T11:21:15.948Z,37.60
2018-10-17T11:23:44.271Z,37.30
2018-10-17T11:26:12.626Z,37.50
2018-10-17T11:28:40.999Z,36.70
2018-10-17T11:31:09.373Z,36.60
2018-10-17T11:33:37.735Z,36.40
2018-10-17T11:36:06.131Z,35.30
2018-10-17T11:38:34.512Z,34.60
2018-10-17T11:41:02.990Z,34.90
2018-10-17T11:43:31.359Z,34.00
2018-10-17T11:45:59.968Z,33.50
2018-10-17T11:48:28.425Z,33.30
2018-10-17T11:50:56.925Z,33.10
2018-10-17T11:53:25.286Z,33.20
2018-10-17T11:55:53.799Z,32.80
2018-10-17T11:58:22.147Z,32.50
2018-10-17T12:00:50.538Z,32.60
2018-10-17T12:03:19.585Z,32.70
2018-10-17T12:05:47.954Z,32.30
2018-10-17T12:08:16.287Z,31.00
2018-10-17T12:10:44.763Z,30.20
2018-10-17T12:13:13.091Z,30.30
2018-10-17T12:15:42.899Z,30.70
2018-10-17T12:18:11.828Z,30.90
2018-10-17T12:20:40.165Z,30.00
2018-10-17T12:23:08.557Z,29.70
2018-10-17T12:25:36.959Z,29.40
2018-10-17T12:28:06.384Z,29.60
2018-10-17T12:30:34.837Z,29.20
2018-10-17T12:33:03.368Z,29.00
2018-10-17T12:35:31.747Z,28.90
2018-10-17T12:38:00.097Z,28.50
2018-10-17T12:40:28.545Z,28.90
2018-10-17T12:42:56.820Z,28.40
2018-10-17T12:45:25.173Z,28.40
2018-10-17T12:47:53.517Z,27.60
2018-10-17T12:50:22.107Z,27.90
2018-10-17T12:52:50.580Z,28.10
2018-10-17T12:55:18.891Z,28.20
2018-10-17T12:57:47.161Z,27.30
2018-10-17T13:00:15.486Z,27.60
2018-10-17T13:02:43.883Z,27.50
2018-10-17T13:05:12.252Z,27.80
2018-10-17T13:07:40.665Z,27.60
2018-10-17T13:10:09.899Z,27.70
2018-10-17T13:12:38.310Z,27.20
2018-10-17T13:15:08.162Z,26.90
2018-10-17T13:17:36.367Z,26.80
2018-10-17T13:20:04.753Z,27.00
2018-10-17T13:22:33.072Z,27.20
2018-10-17T13:25:01.452Z,27.10
2018-10-17T13:27:29.817Z,26.80
2018-10-17T13:29:58.176Z,26.90
2018-10-17T13:32:26.526Z,26.50
2018-10-17T13:34:54.912Z,26.60
2018-10-17T13:37:23.229Z,26.70
2018-10-17T13:39:51.598Z,26.40
2018-10-17T13:42:20.051Z,25.90
2018-10-17T13:44:48.454Z,26.10
2018-10-17T13:47:16.911Z,25.60
2018-10-17T13:49:46.551Z,25.90
2018-10-17T13:52:15.199Z,26.20
2018-10-17T13:54:43.757Z,26.00
2018-10-17T13:57:12.112Z,26.40
2018-10-17T13:59:40.465Z,26.40
2018-10-17T14:02:08.802Z,26.40
2018-10-17T14:04:38.257Z,26.50
2018-10-17T14:07:06.796Z,26.80
2018-10-17T14:09:35.128Z,27.00
2018-10-17T14:12:03.507Z,26.80
2018-10-17T14:14:34.656Z,26.80
2018-10-17T14:17:03.339Z,26.80
2018-10-17T14:19:31.675Z,26.70
2018-10-17T14:22:00.045Z,26.80
2018-10-17T14:24:28.390Z,26.60
2018-10-17T14:26:56.782Z,26.60
2018-10-17T14:29:25.147Z,26.70
2018-10-17T14:31:53.455Z,26.80
2018-10-17T14:34:21.824Z,27.10
2018-10-17T14:36:50.172Z,27.40
2018-10-17T14:39:18.544Z,27.70
2018-10-17T14:41:46.886Z,27.70
2018-10-17T14:44:15.237Z,27.90
2018-10-17T14:46:43.582Z,27.90
2018-10-17T14:49:11.944Z,28.00
2018-10-17T14:51:40.285Z,28.20
2018-10-17T14:54:08.654Z,28.20
2018-10-17T14:56:36.993Z,28.30
2018-10-17T14:59:05.604Z,28.50
2018-10-17T15:01:33.938Z,28.80
2018-10-17T15:04:02.306Z,28.80
2018-10-17T15:06:30.656Z,28.80
2018-10-17T15:08:59.073Z,28.90
2018-10-17T15:11:27.414Z,29.10
2018-10-17T15:13:55.838Z,29.20
2018-10-17T15:16:24.221Z,29.10
2018-10-17T15:18:52.650Z,29.30
2018-10-17T15:21:21.021Z,29.40
2018-10-17T15:23:49.393Z,29.40
2018-10-17T15:26:17.788Z,29.50
2018-10-17T15:28:46.143Z,29.30
2018-10-17T15:31:14.546Z,29.50
2018-10-17T15:33:42.915Z,29.60
2018-10-17T15:36:11.346Z,29.70
2018-10-17T15:38:39.664Z,29.60
2018-10-17T15:41:08.039Z,29.80
2018-10-17T15:43:36.460Z,30.10
2018-10-17T15:46:04.846Z,29.90
2018-10-17T15:48:33.195Z,30.20
2018-10-17T15:51:01.526Z,30.00
2018-10-17T15:53:29.927Z,30.20
2018-10-17T15:55:58.199Z,30.60
2018-10-17T15:58:26.560Z,30.70
2018-10-17T16:00:54.928Z,31.20
2018-10-17T16:03:23.275Z,31.20
2018-10-17T16:05:51.670Z,31.10
2018-10-17T16:08:20.003Z,31.00
2018-10-17T16:10:48.353Z,31.20
2018-10-17T16:13:16.739Z,31.50
2018-10-17T16:15:45.109Z,31.90
2018-10-17T16:18:13.602Z,32.30
2018-10-17T16:20:41.888Z,32.30
2018-10-17T16:23:10.305Z,32.60
2018-10-17T16:25:38.649Z,32.90
2018-10-17T16:28:07.047Z,33.00
2018-10-17T16:30:35.403Z,33.40
2018-10-17T16:33:03.809Z,33.70
2018-10-17T16:35:32.170Z,33.90
2018-10-17T16:38:00.648Z,34.20
2018-10-17T16:40:28.912Z,34.30
2018-10-17T16:42:57.271Z,34.60
2018-10-17T16:45:25.645Z,34.80
2018-10-17T16:47:54.064Z,35.10
2018-10-17T16:50:22.471Z,35.20
2018-10-17T16:52:50.771Z,35.50
2018-10-17T16:55:19.142Z,35.70
2018-10-17T16:57:47.459Z,35.90
2018-10-17T17:00:15.879Z,36.20
2018-10-17T17:02:44.239Z,36.40
2018-10-17T17:05:13.863Z,37.30
2018-10-17T17:07:42.344Z,38.00
2018-10-17T17:10:12.067Z,38.70
2018-10-17T17:12:40.599Z,39.60
2018-10-17T17:15:09.065Z,39.50
2018-10-17T17:17:37.346Z,39.30
2018-10-17T17:20:07.403Z,39.70
2018-10-17T17:22:35.737Z,40.20
2018-10-17T17:25:04.156Z,40.60
2018-10-17T17:27:32.532Z,41.10
2018-10-17T17:30:00.908Z,41.40
2018-10-17T17:32:29.316Z,41.60
2018-10-17T17:34:57.686Z,41.70
2018-10-17T17:37:26.091Z,41.70
2018-10-17T17:39:54.457Z,41.70
2018-10-17T17:42:22.769Z,42.00
2018-10-17T17:44:51.130Z,42.20
2018-10-17T17:47:19.480Z,42.20
2018-10-17T17:49:47.860Z,42.10
2018-10-17T17:52:16.227Z,42.20
2018-10-17T17:54:44.554Z,42.80
2018-10-17T17:57:12.954Z,43.20
2018-10-17T17:59:41.308Z,43.60
2018-10-17T18:02:09.687Z,43.80
2018-10-17T18:04:38.004Z,43.90
2018-10-17T18:07:06.980Z,44.10
2018-10-17T18:09:35.554Z,44.10
2018-10-17T18:12:04.286Z,44.10
2018-10-17T18:14:32.636Z,44.10
2018-10-17T18:17:00.994Z,44.10
2018-10-17T18:19:29.372Z,44.10
2018-10-17T18:21:57.816Z,44.50
2018-10-17T18:24:26.064Z,44.40
2018-10-17T18:26:54.406Z,44.30
2018-10-17T18:29:22.752Z,44.40
2018-10-17T18:31:51.084Z,44.50
2018-10-17T18:34:19.433Z,44.50
2018-10-17T18:36:47.763Z,44.50
2018-10-17T18:39:16.134Z,44.50
2018-10-17T18:41:44.430Z,44.50
2018-10-17T18:44:12.769Z,44.50
2018-10-17T18:46:41.104Z,44.60
2018-10-17T18:49:09.434Z,44.70
2018-10-17T18:51:37.798Z,44.60
2018-10-17T18:54:06.224Z,44.60
2018-10-17T18:56:34.602Z,44.80
2018-10-17T18:59:02.979Z,45.00
2018-10-17T19:01:31.402Z,45.00
2018-10-17T19:03:59.708Z,44.90
2018-10-17T19:06:28.084Z,45.30
2018-10-17T19:08:56.440Z,45.80
2018-10-17T19:11:24.801Z,45.90
2018-10-17T19:13:53.138Z,45.50
2018-10-17T19:16:21.472Z,45.20
2018-10-17T19:18:49.852Z,45.30
2018-10-17T19:21:18.203Z,45.80
2018-10-17T19:23:46.553Z,46.30
2018-10-17T19:26:14.909Z,46.60
2018-10-17T19:28:43.277Z,47.00
2018-10-17T19:31:11.639Z,46.90
2018-10-17T19:33:39.985Z,47.50
2018-10-17T19:36:08.465Z,47.20
2018-10-17T19:38:36.742Z,47.70
2018-10-17T19:41:05.277Z,48.20
2018-10-17T19:43:33.621Z,48.70
2018-10-17T19:46:01.963Z,48.80
2018-10-17T19:48:30.304Z,48.70
2018-10-17T19:50:58.774Z,48.60
2018-10-17T19:53:27.081Z,48.90
2018-10-17T19:55:55.476Z,49.10
2018-10-17T19:58:23.732Z,49.30
2018-10-17T20:00:52.100Z,49.70
2018-10-17T20:03:20.615Z,50.00
2018-10-17T20:05:48.986Z,50.50
2018-10-17T20:08:17.335Z,50.70
2018-10-17T20:10:45.639Z,50.90
2018-10-17T20:13:14.051Z,51.00
2018-10-17T20:15:42.415Z,51.10
2018-10-17T20:18:10.773Z,51.20
2018-10-17T20:20:39.159Z,51.30
2018-10-17T20:23:07.488Z,51.60
2018-10-17T20:25:35.830Z,52.20
2018-10-17T20:28:04.255Z,52.40
2018-10-17T20:30:32.597Z,53.00
2018-10-17T20:33:00.994Z,53.40
2018-10-17T20:35:29.294Z,53.70
2018-10-17T20:37:57.697Z,54.00
2018-10-17T20:40:26.067Z,54.80
2018-10-17T20:42:54.409Z,54.30
2018-10-17T20:45:22.745Z,54.50
2018-10-17T20:47:51.099Z,54.50
2018-10-17T20:50:19.531Z,54.90
2018-10-17T20:52:47.784Z,55.30
2018-10-17T20:55:16.121Z,55.40
2018-10-17T20:57:44.457Z,55.40
2018-10-17T21:00:12.839Z,55.40
2018-10-17T21:02:41.219Z,55.30
2018-10-17T21:05:09.596Z,55.30
2018-10-17T21:07:37.966Z,55.30
2018-10-17T21:10:07.110Z,55.30
2018-10-17T21:12:35.460Z,56.00
2018-10-17T21:15:03.892Z,56.00
2018-10-17T21:17:32.240Z,55.30
2018-10-17T21:20:00.607Z,55.30
2018-10-17T21:22:28.959Z,55.30
2018-10-17T21:24:57.278Z,56.00
2018-10-17T21:27:25.709Z,56.30
2018-10-17T21:29:54.129Z,56.50
2018-10-17T21:32:22.466Z,56.70
2018-10-17T21:34:50.917Z,56.50
2018-10-17T21:37:19.310Z,56.50
2018-10-17T21:39:47.655Z,56.60
2018-10-17T21:42:15.991Z,56.90
2018-10-17T21:44:44.341Z,57.30
2018-10-17T21:47:12.796Z,57.20
2018-10-17T21:49:41.037Z,57.20
2018-10-17T21:52:09.384Z,57.30
2018-10-17T21:54:37.702Z,57.40
2018-10-17T21:57:06.436Z,57.70
2018-10-17T21:59:34.782Z,58.70
2018-10-17T22:02:03.173Z,58.50
2018-10-17T22:04:31.586Z,58.50
2018-10-17T22:06:59.917Z,58.40
2018-10-17T22:09:28.249Z,58.40
2018-10-17T22:11:56.635Z,58.40
2018-10-17T22:14:24.938Z,58.40
2018-10-17T22:17:05.364Z,58.30
2018-10-17T22:19:34.582Z,58.20
2018-10-17T22:22:02.904Z,58.20
2018-10-17T22:24:31.240Z,57.80
2018-10-17T22:26:59.569Z,57.80
2018-10-17T22:29:27.943Z,57.60
2018-10-17T22:31:56.350Z,58.00
2018-10-17T22:34:24.642Z,58.30
2018-10-17T22:36:53.002Z,58.50
2018-10-17T22:39:21.355Z,58.50
2018-10-17T22:41:49.695Z,59.10
2018-10-17T22:44:18.053Z,60.00
2018-10-17T22:46:46.408Z,60.50
2018-10-17T22:49:14.764Z,60.80
2018-10-17T22:51:43.193Z,61.00
2018-10-17T22:54:11.546Z,60.90
2018-10-17T22:56:39.904Z,60.50
2018-10-17T22:59:08.672Z,60.10
2018-10-17T23:01:37.407Z,59.80
2018-10-17T23:04:06.532Z,59.60
2018-10-17T23:06:34.896Z,60.40
2018-10-17T23:09:03.573Z,61.10
2018-10-17T23:11:31.956Z,62.00
2018-10-17T23:14:00.337Z,62.30
2018-10-17T23:16:28.636Z,62.20
2018-10-17T23:18:56.997Z,62.10
2018-10-17T23:21:25.312Z,61.50
2018-10-17T23:23:53.666Z,61.20
2018-10-17T23:26:22.113Z,61.30
2018-10-17T23:28:50.569Z,61.40
2018-10-17T23:31:19.644Z,61.30
2018-10-17T23:33:48.169Z,61.30
2018-10-17T23:36:16.577Z,61.70
2018-10-17T23:38:44.925Z,62.40
2018-10-17T23:41:13.337Z,63.20
2018-10-17T23:43:41.685Z,63.50
2018-10-17T23:46:10.039Z,63.40
2018-10-17T23:48:38.348Z,63.10
2018-10-17T23:51:06.733Z,63.00
2018-10-17T23:53:35.055Z,62.90
2018-10-17T23:56:03.483Z,62.80
2018-10-17T23:58:31.808Z,62.70
